createdAt,value
2023-01-12T00:01:52.039Z,11.02
2023-01-12T00:04:19.543Z,10.32
2023-01-12T00:06:47.002Z,10.27
2023-01-12T00:09:14.287Z,9.98
2023-01-12T00:11:41.898Z,10.77
2023-01-12T00:14:10.044Z,10.10
2023-01-12T00:16:38.124Z,10.77
2023-01-12T00:19:11.116Z,11.57
2023-01-12T00:21:51.270Z,9.68
2023-01-12T00:24:19.340Z,10.38
2023-01-12T00:26:47.747Z,9.68
2023-01-12T00:29:15.902Z,9.60
2023-01-12T00:31:43.808Z,8.82
2023-01-12T00:34:12.153Z,9.88
2023-01-12T00:36:39.761Z,8.48
2023-01-12T00:39:07.337Z,8.65
2023-01-12T00:41:53.792Z,8.75
2023-01-12T00:44:39.562Z,8.68
2023-01-12T00:47:07.847Z,8.27
2023-01-12T00:49:36.329Z,7.93
2023-01-12T00:52:04.430Z,7.67
2023-01-12T00:54:32.443Z,7.68
2023-01-12T00:56:59.976Z,6.88
2023-01-12T00:59:27.724Z,7.32
2023-01-12T01:01:55.399Z,7.28
2023-01-12T01:04:22.902Z,6.65
2023-01-12T01:06:50.502Z,6.22
2023-01-12T01:09:17.891Z,6.95
2023-01-12T01:11:45.282Z,6.53
2023-01-12T01:14:12.569Z,6.20
2023-01-12T01:16:39.817Z,5.93
2023-01-12T01:19:07.153Z,5.57
2023-01-12T01:21:35.228Z,6.38
2023-01-12T01:24:02.671Z,5.55
2023-01-12T01:26:31.726Z,6.03
2023-01-12T01:28:59.042Z,5.20
2023-01-12T01:31:26.827Z,5.82
2023-01-12T01:33:54.140Z,4.35
2023-01-12T01:36:21.777Z,4.75
2023-01-12T01:38:50.273Z,4.43
2023-01-12T01:41:20.075Z,4.20
2023-01-12T01:44:14.543Z,4.85
2023-01-12T01:46:42.632Z,4.15
2023-01-12T01:49:29.196Z,4.95
2023-01-12T01:52:09.403Z,3.30
2023-01-12T01:54:42.052Z,3.65
2023-01-12T01:57:10.416Z,2.92
2023-01-12T01:59:42.679Z,2.87
2023-01-12T02:02:09.979Z,3.90
2023-01-12T02:04:37.368Z,3.22
2023-01-12T02:07:06.423Z,3.10
2023-01-12T02:09:33.765Z,2.70
2023-01-12T02:12:20.175Z,2.65
2023-01-12T02:15:07.084Z,2.78
2023-01-12T02:17:43.448Z,3.60
2023-01-12T02:20:44.114Z,2.85
2023-01-12T02:23:28.713Z,2.92
2023-01-12T02:26:01.586Z,3.20
2023-01-12T02:29:00.718Z,2.35
2023-01-12T02:34:24.466Z,2.97
2023-01-12T02:37:10.520Z,3.13
2023-01-12T02:39:59.913Z,2.33
2023-01-12T02:42:41.564Z,2.88
2023-01-12T02:45:32.451Z,2.90
2023-01-12T02:48:18.748Z,3.15
2023-01-12T02:50:53.221Z,2.58
2023-01-12T02:53:33.535Z,2.50
2023-01-12T02:56:05.186Z,3.20
2023-01-12T02:58:35.843Z,3.42
2023-01-12T03:01:04.101Z,2.42
2023-01-12T03:03:32.108Z,3.00
2023-01-12T03:05:59.808Z,2.95
2023-01-12T03:08:29.375Z,2.08
2023-01-12T03:11:06.733Z,2.35
2023-01-12T03:13:36.309Z,2.80
2023-01-12T03:16:04.826Z,2.50
2023-01-12T03:18:35.080Z,3.10
2023-01-12T03:21:34.439Z,2.67
2023-01-12T03:24:05.358Z,2.83
2023-01-12T03:26:34.210Z,2.53
2023-01-12T03:29:27.969Z,2.97
2023-01-12T03:31:56.196Z,2.83
2023-01-12T03:34:23.988Z,3.03
2023-01-12T03:37:15.193Z,2.47
2023-01-12T03:39:56.151Z,2.85
2023-01-12T03:42:31.010Z,2.70
2023-01-12T03:45:34.236Z,2.67
2023-01-12T03:48:26.298Z,2.30
2023-01-12T03:51:30.412Z,2.88
2023-01-12T03:53:58.654Z,3.20
2023-01-12T03:56:28.690Z,3.13
2023-01-12T03:58:56.249Z,2.28
2023-01-12T04:01:23.729Z,1.92
2023-01-12T04:03:51.039Z,2.40
2023-01-12T04:06:18.302Z,2.30
2023-01-12T04:08:45.606Z,1.85
2023-01-12T04:11:31.337Z,1.95
2023-01-12T04:13:58.561Z,2.00
2023-01-12T04:16:25.961Z,2.13
2023-01-12T04:18:53.195Z,2.58
2023-01-12T04:21:38.979Z,2.28
2023-01-12T04:24:06.340Z,3.05
2023-01-12T04:26:33.536Z,2.28
2023-01-12T04:29:00.770Z,2.00
2023-01-12T04:31:28.026Z,2.42
2023-01-12T04:33:55.868Z,2.75
2023-01-12T04:36:23.116Z,1.92
2023-01-12T04:38:50.511Z,2.33
2023-01-12T04:41:17.722Z,2.75
2023-01-12T04:43:46.656Z,2.17
2023-01-12T04:46:13.975Z,2.17
2023-01-12T04:48:46.766Z,2.85
2023-01-12T04:51:14.899Z,2.05
2023-01-12T04:53:42.337Z,2.72
2023-01-12T04:56:10.033Z,1.95
2023-01-12T04:58:37.582Z,2.15
2023-01-12T05:01:16.479Z,2.03
2023-01-12T05:03:44.709Z,2.38
2023-01-12T05:06:12.427Z,2.38
2023-01-12T05:08:58.747Z,2.28
2023-01-12T05:11:28.730Z,2.45
2023-01-12T05:13:57.267Z,2.35
2023-01-12T05:16:25.105Z,1.80
2023-01-12T05:18:53.429Z,1.70
2023-01-12T05:21:22.277Z,2.50
2023-01-12T05:23:51.208Z,2.00
2023-01-12T05:26:18.607Z,2.20
2023-01-12T05:28:49.796Z,2.55
2023-01-12T05:31:17.113Z,2.30
2023-01-12T05:33:44.550Z,2.47
2023-01-12T05:36:13.777Z,2.10
2023-01-12T05:41:11.851Z,2.20
2023-01-12T05:44:05.022Z,1.35
2023-01-12T05:46:33.449Z,2.00
2023-01-12T05:49:00.827Z,1.97
2023-01-12T05:51:30.996Z,1.98
2023-01-12T05:53:58.445Z,2.05
2023-01-12T05:56:27.264Z,1.92
2023-01-12T05:58:56.419Z,2.30
2023-01-12T06:01:24.415Z,1.85
2023-01-12T06:03:53.791Z,2.10
2023-01-12T06:06:22.810Z,2.20
2023-01-12T06:08:52.589Z,1.85
2023-01-12T06:11:39.361Z,1.92
2023-01-12T06:14:07.151Z,2.25
2023-01-12T06:16:36.413Z,2.40
2023-01-12T06:21:32.609Z,2.05
2023-01-12T06:24:00.003Z,1.85
2023-01-12T06:26:27.711Z,2.08
2023-01-12T06:28:54.983Z,1.83
2023-01-12T06:31:22.229Z,2.30
2023-01-12T06:33:49.658Z,2.35
2023-01-12T06:36:16.887Z,1.83
2023-01-12T06:38:44.238Z,2.72
2023-01-12T06:41:32.967Z,2.13
2023-01-12T06:44:00.439Z,2.03
2023-01-12T06:46:28.727Z,2.22
2023-01-12T06:48:57.274Z,2.50
2023-01-12T06:51:24.692Z,2.00
2023-01-12T06:53:52.235Z,1.88
2023-01-12T06:56:19.528Z,1.98
2023-01-12T06:58:46.796Z,2.28
2023-01-12T07:01:14.293Z,2.42
2023-01-12T07:03:41.641Z,1.83
2023-01-12T07:06:09.019Z,2.65
2023-01-12T07:08:36.413Z,1.77
2023-01-12T07:11:05.768Z,1.80
2023-01-12T07:16:01.132Z,2.33
2023-01-12T07:18:29.719Z,1.65
2023-01-12T07:20:56.958Z,3.10
2023-01-12T07:23:24.408Z,2.50
2023-01-12T07:25:51.758Z,2.50
2023-01-12T07:28:18.995Z,2.10
2023-01-12T07:30:46.344Z,2.13
2023-01-12T07:33:15.731Z,2.30
2023-01-12T07:35:44.415Z,1.73
2023-01-12T07:38:11.703Z,2.15
2023-01-12T07:40:39.982Z,1.98
2023-01-12T07:43:08.879Z,1.88
2023-01-12T07:45:36.533Z,1.73
2023-01-12T07:48:04.018Z,1.58
2023-01-12T07:50:31.698Z,1.55
2023-01-12T07:53:02.409Z,1.85
2023-01-12T07:55:31.292Z,1.98
2023-01-12T07:58:08.913Z,1.85
2023-01-12T08:00:36.735Z,1.55
2023-01-12T08:03:12.244Z,1.58
2023-01-12T08:05:39.946Z,1.63
2023-01-12T08:08:07.801Z,1.67
2023-01-12T08:10:35.452Z,1.92
2023-01-12T08:13:02.848Z,2.47
2023-01-12T08:15:33.836Z,1.85
2023-01-12T08:18:06.973Z,1.70
2023-01-12T08:20:37.575Z,2.40
2023-01-12T08:23:11.644Z,2.60
2023-01-12T08:25:44.659Z,1.65
2023-01-12T08:28:19.386Z,2.05
2023-01-12T08:30:47.975Z,2.13
2023-01-12T08:33:15.854Z,1.65
2023-01-12T08:35:43.624Z,1.73
2023-01-12T08:38:11.207Z,1.80
2023-01-12T08:40:56.890Z,1.85
2023-01-12T08:43:42.468Z,1.95
2023-01-12T08:46:09.826Z,1.50
2023-01-12T08:48:38.444Z,3.65
2023-01-12T08:51:06.968Z,1.40
2023-01-12T08:53:34.626Z,1.95
2023-01-12T08:56:02.036Z,1.30
2023-01-12T08:58:29.309Z,1.63
2023-01-12T09:00:56.796Z,1.65
2023-01-12T09:03:24.161Z,2.05
2023-01-12T09:05:51.383Z,1.48
2023-01-12T09:08:18.660Z,1.50
2023-01-12T09:10:45.920Z,1.63
2023-01-12T09:13:15.743Z,1.40
2023-01-12T09:15:48.168Z,1.70
2023-01-12T09:18:20.330Z,2.03
2023-01-12T09:20:47.602Z,1.90
2023-01-12T09:23:14.837Z,1.40
2023-01-12T09:25:42.047Z,1.73
2023-01-12T09:28:09.318Z,2.80
2023-01-12T09:30:36.546Z,2.00
2023-01-12T09:33:03.795Z,2.00
2023-01-12T09:35:31.468Z,2.17
2023-01-12T09:37:58.701Z,1.90
2023-01-12T09:40:26.000Z,1.60
2023-01-12T09:43:12.173Z,1.67
2023-01-12T09:46:02.429Z,1.50
2023-01-12T09:48:29.727Z,2.00
2023-01-12T09:51:05.213Z,1.75
2023-01-12T09:53:37.293Z,1.45
2023-01-12T09:56:24.940Z,1.35
2023-01-12T09:59:18.572Z,1.80
2023-01-12T10:01:46.046Z,1.42
2023-01-12T10:04:14.446Z,1.88
2023-01-12T10:06:42.265Z,1.90
2023-01-12T10:09:21.520Z,1.77
2023-01-12T10:14:33.667Z,1.75
2023-01-12T10:17:13.790Z,2.15
2023-01-12T10:19:58.400Z,3.00
2023-01-12T10:22:37.441Z,1.67
2023-01-12T10:27:40.923Z,1.30
2023-01-12T10:30:18.885Z,1.73
2023-01-12T10:32:46.226Z,1.70
2023-01-12T10:35:16.220Z,1.45
2023-01-12T10:37:54.824Z,1.40
2023-01-12T10:40:27.113Z,1.52
2023-01-12T10:43:21.693Z,1.80
2023-01-12T10:46:13.537Z,1.33
2023-01-12T10:48:48.943Z,1.40
2023-01-12T10:51:27.892Z,1.90
2023-01-12T10:54:10.782Z,1.60
2023-01-12T10:56:59.423Z,1.90
2023-01-12T10:59:29.440Z,1.70
2023-01-12T11:02:05.648Z,1.35
2023-01-12T11:04:39.925Z,1.83
2023-01-12T11:07:45.043Z,1.80
2023-01-12T11:10:29.774Z,2.28
2023-01-12T11:13:01.365Z,1.65
2023-01-12T11:15:29.731Z,1.75
2023-01-12T11:18:31.348Z,2.00
2023-01-12T11:21:19.858Z,1.85
2023-01-12T11:24:07.257Z,1.75
2023-01-12T11:26:48.870Z,1.50
2023-01-12T11:29:32.758Z,1.50
2023-01-12T11:32:10.145Z,1.80
2023-01-12T11:34:40.316Z,1.35
2023-01-12T11:37:12.559Z,1.70
2023-01-12T11:39:48.113Z,1.60
2023-01-12T11:42:43.189Z,2.00
2023-01-12T11:45:18.838Z,1.90
2023-01-12T11:48:15.069Z,1.55
2023-01-12T11:50:43.556Z,1.13
2023-01-12T11:53:21.518Z,1.70
2023-01-12T11:56:14.545Z,1.48
2023-01-12T11:58:54.032Z,1.75
2023-01-12T12:01:26.888Z,1.20
2023-01-12T12:04:35.683Z,1.25
2023-01-12T12:07:25.371Z,1.30
2023-01-12T12:10:04.185Z,0.70
2023-01-12T12:13:04.461Z,1.45
2023-01-12T12:15:55.994Z,1.05
2023-01-12T12:18:37.668Z,1.00
2023-01-12T12:21:44.289Z,1.10
2023-01-12T12:24:37.068Z,1.10
2023-01-12T12:27:25.431Z,0.88
2023-01-12T12:30:25.280Z,0.97
2023-01-12T12:33:13.664Z,0.45
2023-01-12T12:36:00.001Z,0.60
2023-01-12T12:38:47.426Z,0.77
2023-01-12T12:41:55.481Z,0.70
2023-01-12T12:45:16.507Z,0.80
2023-01-12T12:48:04.072Z,0.68
2023-01-12T12:50:36.724Z,0.80
2023-01-12T12:53:24.611Z,0.57
2023-01-12T12:55:53.140Z,0.47
2023-01-12T12:58:23.492Z,0.73
2023-01-12T13:00:52.129Z,0.52
2023-01-12T13:03:42.483Z,0.52
2023-01-12T13:06:17.713Z,0.63
2023-01-12T13:08:46.475Z,0.93
2023-01-12T13:11:13.982Z,0.50
2023-01-12T13:13:59.275Z,0.60
2023-01-12T13:16:29.705Z,0.50
2023-01-12T13:18:56.948Z,0.63
2023-01-12T13:21:27.273Z,0.68
2023-01-12T13:24:18.442Z,0.55
2023-01-12T13:26:52.416Z,0.50
2023-01-12T13:29:29.211Z,0.90
2023-01-12T13:32:19.873Z,0.40
2023-01-12T13:34:49.368Z,0.40
2023-01-12T13:37:31.674Z,0.50
2023-01-12T13:40:13.325Z,0.60
2023-01-12T13:42:59.188Z,0.43
2023-01-12T13:45:26.532Z,0.40
2023-01-12T13:47:54.544Z,0.60
2023-01-12T13:50:24.980Z,0.50
2023-01-12T13:52:59.840Z,0.40
2023-01-12T13:55:32.402Z,0.50
2023-01-12T13:58:18.865Z,0.57
2023-01-12T14:00:54.791Z,0.60
2023-01-12T14:03:47.810Z,0.57
2023-01-12T14:06:37.168Z,0.43
2023-01-12T14:09:21.923Z,0.40
2023-01-12T14:12:05.117Z,0.45
2023-01-12T14:14:50.734Z,0.50
2023-01-12T14:17:47.530Z,0.55
2023-01-12T14:20:20.377Z,0.70
2023-01-12T14:22:47.632Z,0.40
2023-01-12T14:25:21.152Z,0.50
2023-01-12T14:27:54.316Z,0.60
2023-01-12T14:30:25.826Z,0.40
2023-01-12T14:32:53.821Z,0.25
2023-01-12T14:35:23.176Z,0.57
2023-01-12T14:40:34.732Z,0.40
2023-01-12T14:43:21.536Z,0.50
2023-01-12T14:46:18.697Z,0.70
2023-01-12T14:49:22.541Z,0.47
2023-01-12T14:51:57.615Z,0.40
2023-01-12T14:54:30.252Z,0.30
2023-01-12T14:57:25.088Z,0.60
2023-01-12T14:59:52.472Z,1.23
2023-01-12T15:02:39.922Z,0.60
2023-01-12T15:05:25.842Z,0.60
2023-01-12T15:07:59.009Z,0.43
2023-01-12T15:10:26.202Z,0.43
2023-01-12T15:12:56.886Z,0.40
2023-01-12T15:15:52.385Z,0.30
2023-01-12T15:18:38.074Z,0.40
2023-01-12T15:21:23.833Z,0.60
2023-01-12T15:24:11.820Z,0.28
2023-01-12T15:26:39.049Z,0.30
2023-01-12T15:29:06.294Z,0.47
2023-01-12T15:31:35.690Z,0.22
2023-01-12T15:34:03.344Z,0.63
2023-01-12T15:36:30.751Z,0.32
2023-01-12T15:38:58.119Z,0.32
2023-01-12T15:41:49.314Z,0.73
2023-01-12T15:44:18.607Z,0.47
2023-01-12T15:49:13.560Z,0.30
2023-01-12T15:51:51.503Z,0.40
2023-01-12T15:54:20.083Z,0.45
2023-01-12T15:56:47.967Z,0.30
2023-01-12T15:59:15.316Z,0.40
2023-01-12T16:01:45.538Z,0.30
2023-01-12T16:04:41.501Z,0.20
2023-01-12T16:07:04.103Z,0.40
2023-01-12T16:09:31.626Z,0.38
2023-01-12T16:11:59.053Z,0.20
2023-01-12T16:14:26.526Z,0.40
2023-01-12T16:16:53.828Z,0.50
2023-01-12T16:19:22.308Z,0.40
2023-01-12T16:21:49.534Z,0.60
2023-01-12T16:24:16.905Z,0.40
2023-01-12T16:26:45.545Z,0.50
2023-01-12T16:29:12.772Z,0.50
2023-01-12T16:31:40.084Z,0.30
2023-01-12T16:34:07.322Z,0.70
2023-01-12T16:36:34.609Z,0.32
2023-01-12T16:39:04.950Z,0.38
2023-01-12T16:41:32.204Z,0.35
2023-01-12T16:43:59.662Z,0.40
2023-01-12T16:46:30.135Z,0.40
2023-01-12T16:48:58.611Z,0.40
2023-01-12T16:51:25.997Z,0.70
2023-01-12T16:53:55.164Z,0.50
2023-01-12T16:56:22.436Z,0.50
2023-01-12T16:58:49.767Z,0.50
2023-01-12T17:01:20.977Z,0.98
2023-01-12T17:03:49.170Z,0.63
2023-01-12T17:06:19.466Z,0.50
2023-01-12T17:08:46.932Z,0.43
2023-01-12T17:11:19.175Z,0.70
2023-01-12T17:13:52.671Z,0.70
2023-01-12T17:16:20.203Z,0.50
2023-01-12T17:18:49.950Z,0.60
2023-01-12T17:21:18.542Z,1.20
2023-01-12T17:23:45.963Z,0.38
2023-01-12T17:26:17.694Z,0.45
2023-01-12T17:28:47.498Z,0.65
2023-01-12T17:31:17.250Z,0.88
2023-01-12T17:33:46.477Z,0.47
2023-01-12T17:36:13.919Z,0.60
2023-01-12T17:38:41.208Z,0.68
2023-01-12T17:41:29.961Z,0.55
2023-01-12T17:43:57.458Z,0.80
2023-01-12T17:46:24.841Z,1.10
2023-01-12T17:48:52.072Z,0.70
2023-01-12T17:51:21.351Z,0.80
2023-01-12T17:56:15.995Z,0.90
2023-01-12T17:58:43.203Z,0.50
2023-01-12T18:01:13.789Z,0.70
2023-01-12T18:03:41.132Z,0.70
2023-01-12T18:06:12.082Z,1.55
2023-01-12T18:08:49.760Z,1.40
2023-01-12T18:11:18.115Z,1.40
2023-01-12T18:13:46.007Z,0.80
2023-01-12T18:16:14.932Z,0.70
2023-01-12T18:18:43.946Z,0.40
2023-01-12T18:21:16.837Z,0.65
2023-01-12T18:23:44.162Z,0.60
2023-01-12T18:26:16.853Z,1.00
2023-01-12T18:28:44.476Z,0.93
2023-01-12T18:31:17.533Z,0.40
2023-01-12T18:33:45.345Z,0.70
2023-01-12T18:36:19.331Z,0.60
2023-01-12T18:38:46.548Z,0.75
2023-01-12T18:41:32.740Z,0.80
2023-01-12T18:44:04.520Z,0.40
2023-01-12T18:46:50.713Z,0.45
2023-01-12T18:49:26.095Z,0.60
2023-01-12T18:52:11.858Z,0.40
2023-01-12T18:54:44.154Z,1.00
2023-01-12T18:57:14.034Z,0.50
2023-01-12T18:59:42.091Z,0.30
2023-01-12T19:02:11.689Z,0.40
2023-01-12T19:05:02.751Z,0.40
2023-01-12T19:07:39.760Z,0.50
2023-01-12T19:10:07.386Z,0.47
2023-01-12T19:12:34.689Z,0.20
2023-01-12T19:15:20.365Z,0.22
2023-01-12T19:17:51.813Z,0.40
2023-01-12T19:20:21.128Z,0.40
2023-01-12T19:25:56.890Z,0.47
2023-01-12T19:28:35.220Z,0.57
2023-01-12T19:31:04.514Z,0.60
2023-01-12T19:36:04.017Z,0.40
2023-01-12T19:38:31.355Z,0.30
2023-01-12T19:41:13.366Z,0.40
2023-01-12T19:43:45.312Z,0.40
2023-01-12T19:46:15.676Z,0.47
2023-01-12T19:48:43.106Z,0.45
2023-01-12T19:51:11.457Z,0.30
2023-01-12T19:53:40.337Z,0.23
2023-01-12T19:56:15.164Z,0.45
2023-01-12T19:58:42.716Z,0.40
2023-01-12T20:01:10.046Z,0.30
2023-01-12T20:03:39.734Z,0.50
2023-01-12T20:06:07.946Z,0.50
2023-01-12T20:08:35.499Z,0.50
2023-01-12T20:11:05.258Z,0.40
2023-01-12T20:13:33.113Z,0.40
2023-01-12T20:16:04.985Z,0.45
2023-01-12T20:18:32.248Z,0.65
2023-01-12T20:21:00.930Z,0.63
2023-01-12T20:23:28.256Z,0.60
2023-01-12T20:25:56.065Z,0.32
2023-01-12T20:28:23.570Z,0.38
2023-01-12T20:30:50.791Z,0.40
2023-01-12T20:33:18.204Z,0.30
2023-01-12T20:35:46.995Z,0.40
2023-01-12T20:38:16.340Z,0.30
2023-01-12T20:43:11.624Z,0.50
2023-01-12T20:45:41.452Z,0.55
2023-01-12T20:48:08.864Z,0.50
2023-01-12T20:50:36.481Z,0.80
2023-01-12T20:53:03.905Z,0.45
2023-01-12T20:55:31.386Z,0.70
2023-01-12T20:57:58.647Z,0.38
2023-01-12T21:00:26.644Z,0.73
2023-01-12T21:02:53.987Z,0.55
2023-01-12T21:05:21.302Z,0.77
2023-01-12T21:08:07.572Z,0.50
2023-01-12T21:10:38.294Z,0.68
2023-01-12T21:13:06.394Z,0.60
2023-01-12T21:15:33.770Z,0.55
2023-01-12T21:18:01.047Z,0.70
2023-01-12T21:20:29.268Z,0.63
2023-01-12T21:22:56.565Z,0.80
2023-01-12T21:25:27.971Z,0.80
2023-01-12T21:27:55.848Z,0.70
2023-01-12T21:30:23.165Z,0.90
2023-01-12T21:32:52.993Z,0.70
2023-01-12T21:35:21.300Z,0.70
2023-01-12T21:37:48.476Z,0.80
2023-01-12T21:40:16.779Z,0.80
2023-01-12T21:43:02.555Z,0.73
2023-01-12T21:45:29.811Z,0.85
2023-01-12T21:47:57.132Z,0.80
2023-01-12T21:50:24.492Z,0.77
2023-01-12T21:52:51.896Z,1.08
2023-01-12T21:55:19.899Z,1.00
2023-01-12T21:57:49.181Z,0.80
2023-01-12T22:02:45.884Z,0.90
2023-01-12T22:05:13.851Z,0.85
2023-01-12T22:07:41.664Z,0.68
2023-01-12T22:10:20.946Z,0.75
2023-01-12T22:12:54.178Z,0.90
2023-01-12T22:15:22.257Z,0.80
2023-01-12T22:17:51.338Z,0.90
2023-01-12T22:20:18.727Z,0.70
2023-01-12T22:22:45.974Z,0.80
2023-01-12T22:25:14.660Z,0.93
2023-01-12T22:27:42.265Z,0.75
2023-01-12T22:30:12.381Z,0.80
2023-01-12T22:32:41.412Z,0.70
2023-01-12T22:35:09.340Z,0.93
2023-01-12T22:37:37.907Z,0.90
2023-01-12T22:40:07.259Z,0.75
2023-01-12T22:42:53.297Z,0.68
2023-01-12T22:45:20.901Z,1.30
2023-01-12T22:47:52.697Z,0.73
2023-01-12T22:50:21.597Z,0.70
2023-01-12T22:52:54.508Z,0.80
2023-01-12T22:55:23.438Z,0.70
2023-01-12T22:57:51.058Z,0.98
2023-01-12T23:00:20.054Z,0.80
2023-01-12T23:03:03.182Z,1.05
2023-01-12T23:05:43.409Z,0.70
2023-01-12T23:08:10.770Z,0.85
2023-01-12T23:10:38.260Z,0.77
2023-01-12T23:13:20.481Z,0.77
2023-01-12T23:16:06.277Z,0.60
2023-01-12T23:18:35.326Z,0.90
2023-01-12T23:21:14.330Z,0.80
2023-01-12T23:23:50.363Z,0.43
2023-01-12T23:26:20.021Z,0.70
2023-01-12T23:28:56.603Z,0.70
2023-01-12T23:31:33.316Z,0.57
2023-01-12T23:34:02.178Z,0.73
2023-01-12T23:36:30.393Z,0.52
2023-01-12T23:39:02.972Z,0.50
2023-01-12T23:41:34.625Z,0.60
2023-01-12T23:44:03.957Z,0.75
2023-01-12T23:49:10.821Z,0.40
2023-01-12T23:51:38.114Z,0.60
2023-01-12T23:54:05.489Z,0.52
2023-01-12T23:56:33.662Z,0.50
2023-01-12T23:59:01.055Z,0.65
